createdAt,value
2022-11-29T00:01:16.602Z,49.35
2022-11-29T00:03:43.578Z,41.85
2022-11-29T00:06:13.371Z,45.72
2022-11-29T00:08:41.433Z,39.70
2022-11-29T00:11:11.783Z,44.08
2022-11-29T00:13:38.868Z,52.03
2022-11-29T00:16:12.058Z,49.60
2022-11-29T00:18:38.968Z,50.65
2022-11-29T00:21:07.340Z,49.63
2022-11-29T00:23:34.925Z,41.58
2022-11-29T00:26:08.778Z,41.45
2022-11-29T00:28:36.623Z,47.55
2022-11-29T00:31:24.162Z,45.45
2022-11-29T00:33:51.655Z,44.30
2022-11-29T00:36:18.935Z,47.85
2022-11-29T00:38:46.262Z,45.63
2022-11-29T00:41:13.286Z,43.42
2022-11-29T00:43:40.259Z,47.13
2022-11-29T00:46:07.645Z,42.25
2022-11-29T00:48:35.209Z,48.45
2022-11-29T00:51:03.292Z,49.17
2022-11-29T00:53:30.001Z,45.15
2022-11-29T00:55:57.174Z,46.95
2022-11-29T00:58:24.077Z,45.45
2022-11-29T01:00:52.442Z,47.67
2022-11-29T01:03:19.331Z,45.42
2022-11-29T01:05:46.196Z,39.55
2022-11-29T01:08:14.165Z,48.58
2022-11-29T01:10:41.452Z,45.97
2022-11-29T01:13:09.420Z,46.00
2022-11-29T01:15:37.183Z,43.90
2022-11-29T01:18:04.027Z,46.85
2022-11-29T01:20:30.797Z,50.10
2022-11-29T01:22:58.153Z,45.40
2022-11-29T01:25:25.086Z,51.08
2022-11-29T01:27:51.869Z,45.50
2022-11-29T01:30:18.593Z,47.22
2022-11-29T01:32:45.321Z,43.25
2022-11-29T01:35:12.206Z,48.65
2022-11-29T01:37:38.950Z,45.03
2022-11-29T01:40:06.549Z,45.92
2022-11-29T01:42:33.415Z,43.70
2022-11-29T01:45:01.939Z,46.88
2022-11-29T01:47:29.113Z,41.85
2022-11-29T01:49:55.974Z,43.92
2022-11-29T01:52:26.011Z,40.63
2022-11-29T01:54:58.205Z,40.67
2022-11-29T01:57:25.875Z,50.80
2022-11-29T01:59:58.179Z,43.22
2022-11-29T02:02:48.843Z,48.63
2022-11-29T02:05:18.609Z,45.08
2022-11-29T02:07:49.703Z,45.97
2022-11-29T02:10:17.153Z,40.70
2022-11-29T02:12:54.241Z,42.70
2022-11-29T02:15:36.307Z,44.33
2022-11-29T02:18:07.849Z,43.15
2022-11-29T02:21:08.602Z,43.08
2022-11-29T02:23:44.568Z,43.20
2022-11-29T02:26:34.874Z,39.80
2022-11-29T02:29:30.748Z,45.28
2022-11-29T02:34:37.062Z,39.17
2022-11-29T02:37:22.643Z,37.45
2022-11-29T02:42:56.240Z,45.03
2022-11-29T02:45:34.622Z,39.30
2022-11-29T02:48:23.452Z,40.17
2022-11-29T02:51:12.135Z,43.38
2022-11-29T02:53:57.013Z,44.25
2022-11-29T02:56:43.371Z,30.45
2022-11-29T02:59:34.690Z,44.88
2022-11-29T03:02:23.358Z,42.28
2022-11-29T03:05:27.995Z,38.58
2022-11-29T03:08:25.223Z,44.33
2022-11-29T03:11:19.403Z,39.00
2022-11-29T03:13:57.354Z,42.33
2022-11-29T03:16:45.166Z,39.08
2022-11-29T03:19:39.489Z,42.65
2022-11-29T03:22:15.571Z,45.17
2022-11-29T03:24:56.029Z,42.58
2022-11-29T03:27:40.228Z,41.20
2022-11-29T03:30:10.656Z,41.92
2022-11-29T03:33:18.978Z,44.95
2022-11-29T03:36:17.589Z,36.97
2022-11-29T03:38:46.552Z,44.97
2022-11-29T03:41:43.408Z,43.28
2022-11-29T03:44:15.730Z,45.30
2022-11-29T03:46:58.534Z,51.35
2022-11-29T03:49:40.973Z,41.08
2022-11-29T03:52:15.964Z,45.50
2022-11-29T03:57:11.031Z,45.95
2022-11-29T03:59:57.998Z,45.92
2022-11-29T04:02:46.661Z,42.80
2022-11-29T04:05:31.419Z,42.92
2022-11-29T04:08:08.556Z,46.08
2022-11-29T04:10:54.216Z,47.05
2022-11-29T04:13:48.898Z,48.65
2022-11-29T04:16:33.725Z,50.70
2022-11-29T04:19:24.966Z,55.38
2022-11-29T04:22:20.328Z,57.47
2022-11-29T04:25:01.658Z,55.75
2022-11-29T04:28:10.659Z,47.80
2022-11-29T04:30:53.068Z,55.95
2022-11-29T04:33:30.841Z,55.80
2022-11-29T04:36:18.261Z,59.03
2022-11-29T04:39:04.973Z,55.97
2022-11-29T04:41:52.899Z,57.95
2022-11-29T04:44:44.524Z,57.58
2022-11-29T04:47:48.682Z,61.78
2022-11-29T04:50:24.389Z,66.80
2022-11-29T04:53:05.074Z,65.75
2022-11-29T04:55:59.017Z,69.43
2022-11-29T04:58:50.753Z,72.22
2022-11-29T05:01:35.750Z,72.63
2022-11-29T05:04:05.463Z,72.93
2022-11-29T05:06:45.095Z,81.95
2022-11-29T05:09:42.714Z,89.15
2022-11-29T05:12:15.241Z,91.70
2022-11-29T05:14:54.342Z,88.78
2022-11-29T05:17:47.483Z,90.05
2022-11-29T05:20:33.173Z,74.10
2022-11-29T05:23:02.845Z,78.00
2022-11-29T05:25:39.818Z,79.20
2022-11-29T05:28:24.714Z,76.68
2022-11-29T05:31:24.876Z,55.03
2022-11-29T05:34:30.254Z,76.57
2022-11-29T05:37:22.139Z,80.75
2022-11-29T05:40:33.644Z,86.10
2022-11-29T05:43:34.613Z,85.28
2022-11-29T05:46:38.411Z,82.97
2022-11-29T05:49:29.878Z,72.80
2022-11-29T05:52:15.141Z,68.93
2022-11-29T05:55:13.931Z,68.32
2022-11-29T05:58:00.754Z,60.70
2022-11-29T06:00:44.416Z,59.58
2022-11-29T06:03:39.430Z,59.85
2022-11-29T06:06:14.201Z,41.83
2022-11-29T06:09:00.687Z,54.97
2022-11-29T06:12:19.536Z,48.38
2022-11-29T06:15:25.297Z,47.08
2022-11-29T06:18:08.502Z,48.08
2022-11-29T06:21:08.417Z,48.83
2022-11-29T06:23:58.627Z,50.67
2022-11-29T06:26:44.861Z,51.22
2022-11-29T06:29:24.050Z,47.72
2022-11-29T06:32:08.385Z,51.97
2022-11-29T06:34:44.145Z,47.30
2022-11-29T06:37:23.565Z,48.88
2022-11-29T06:39:50.691Z,54.30
2022-11-29T06:42:17.656Z,64.45
2022-11-29T06:44:44.931Z,66.40
2022-11-29T06:47:30.684Z,68.47
2022-11-29T06:50:05.298Z,52.83
2022-11-29T06:52:46.251Z,58.30
2022-11-29T06:55:32.202Z,59.38
2022-11-29T06:57:58.859Z,63.42
2022-11-29T07:00:28.572Z,57.25
2022-11-29T07:03:36.840Z,52.20
2022-11-29T07:06:23.797Z,51.10
2022-11-29T07:09:10.544Z,45.90
2022-11-29T07:11:37.804Z,52.03
2022-11-29T07:14:04.913Z,56.17
2022-11-29T07:16:37.591Z,58.22
2022-11-29T07:19:28.376Z,60.22
2022-11-29T07:22:09.903Z,60.75
2022-11-29T07:24:47.858Z,60.45
2022-11-29T07:27:27.714Z,67.53
2022-11-29T07:30:11.470Z,75.05
2022-11-29T07:33:00.501Z,58.22
2022-11-29T07:35:30.435Z,69.75
2022-11-29T07:38:44.954Z,75.50
2022-11-29T07:41:29.248Z,73.40
2022-11-29T07:44:01.855Z,68.03
2022-11-29T07:46:29.209Z,89.80
2022-11-29T07:48:56.127Z,96.70
2022-11-29T07:51:22.978Z,109.65
2022-11-29T07:53:49.871Z,114.55
2022-11-29T07:56:16.694Z,124.57
2022-11-29T07:58:43.686Z,128.20
2022-11-29T08:01:10.804Z,121.65
2022-11-29T08:03:37.898Z,138.90
2022-11-29T08:06:04.778Z,130.30
2022-11-29T08:08:31.726Z,156.00
2022-11-29T08:10:58.482Z,176.55
2022-11-29T08:13:25.192Z,171.30
2022-11-29T08:15:52.015Z,153.65
2022-11-29T08:18:18.931Z,151.52
2022-11-29T08:20:46.365Z,153.52
2022-11-29T08:23:14.380Z,151.48
2022-11-29T08:25:41.950Z,194.20
2022-11-29T08:28:09.119Z,148.60
2022-11-29T08:30:35.865Z,149.55
2022-11-29T08:33:02.931Z,182.00
2022-11-29T08:35:31.590Z,154.63
2022-11-29T08:37:58.536Z,147.98
2022-11-29T08:40:25.519Z,128.43
2022-11-29T08:42:52.336Z,145.38
2022-11-29T08:45:19.157Z,138.82
2022-11-29T08:47:46.080Z,188.77
2022-11-29T08:50:18.112Z,161.73
2022-11-29T08:53:07.710Z,187.27
2022-11-29T08:55:37.680Z,142.15
2022-11-29T08:58:10.102Z,139.10
2022-11-29T09:00:37.831Z,143.20
2022-11-29T09:03:24.947Z,140.20
2022-11-29T09:05:52.915Z,117.20
2022-11-29T09:08:20.185Z,113.30
2022-11-29T09:10:48.745Z,99.10
2022-11-29T09:13:15.541Z,95.20
2022-11-29T09:15:43.567Z,89.65
2022-11-29T09:18:10.947Z,78.55
2022-11-29T09:20:37.763Z,87.50
2022-11-29T09:23:04.879Z,87.30
2022-11-29T09:25:31.648Z,81.57
2022-11-29T09:28:02.937Z,83.15
2022-11-29T09:30:31.536Z,78.38
2022-11-29T09:33:05.145Z,76.63
2022-11-29T09:35:32.621Z,75.80
2022-11-29T09:37:59.541Z,72.28
2022-11-29T09:40:37.617Z,83.45
2022-11-29T09:43:48.419Z,73.63
2022-11-29T09:46:58.616Z,83.13
2022-11-29T09:50:16.316Z,83.70
2022-11-29T09:53:38.700Z,67.20
2022-11-29T09:56:29.279Z,78.35
2022-11-29T09:59:10.060Z,87.82
2022-11-29T10:01:54.811Z,103.80
2022-11-29T10:04:37.520Z,81.38
2022-11-29T10:07:36.374Z,89.35
2022-11-29T10:10:18.641Z,89.15
2022-11-29T10:13:11.153Z,83.30
2022-11-29T10:15:44.266Z,92.20
2022-11-29T10:18:19.906Z,84.85
2022-11-29T10:20:49.445Z,102.03
2022-11-29T10:23:33.253Z,88.97
2022-11-29T10:26:00.810Z,86.18
2022-11-29T10:28:31.548Z,79.20
2022-11-29T10:31:28.582Z,93.57
2022-11-29T10:33:58.118Z,86.03
2022-11-29T10:36:40.628Z,95.15
2022-11-29T10:39:21.774Z,91.50
2022-11-29T10:41:54.684Z,75.50
2022-11-29T10:44:21.792Z,91.25
2022-11-29T10:46:48.700Z,78.63
2022-11-29T10:49:18.622Z,80.03
2022-11-29T10:51:48.313Z,87.90
2022-11-29T10:54:38.372Z,77.72
2022-11-29T10:57:14.585Z,83.25
2022-11-29T10:59:41.793Z,74.95
2022-11-29T11:02:19.112Z,88.60
2022-11-29T11:04:48.005Z,69.00
2022-11-29T11:07:25.701Z,81.53
2022-11-29T11:09:56.636Z,73.20
2022-11-29T11:12:30.072Z,69.53
2022-11-29T11:15:26.587Z,61.40
2022-11-29T11:18:04.808Z,69.43
2022-11-29T11:20:37.792Z,63.40
2022-11-29T11:23:07.644Z,60.53
2022-11-29T11:25:40.956Z,65.03
2022-11-29T11:28:23.905Z,65.78
2022-11-29T11:31:11.380Z,67.20
2022-11-29T11:33:43.401Z,59.55
2022-11-29T11:36:27.276Z,69.13
2022-11-29T11:39:12.093Z,57.50
2022-11-29T11:42:01.165Z,46.58
2022-11-29T11:44:49.232Z,69.88
2022-11-29T11:47:24.337Z,72.97
2022-11-29T11:52:46.131Z,63.72
2022-11-29T11:57:43.373Z,70.50
2022-11-29T12:03:45.165Z,73.03
2022-11-29T12:06:35.722Z,68.30
2022-11-29T12:09:25.282Z,73.97
2022-11-29T12:12:00.130Z,73.47
2022-11-29T12:14:42.028Z,69.65
2022-11-29T12:17:31.967Z,71.38
2022-11-29T12:20:10.396Z,66.38
2022-11-29T12:22:48.768Z,79.35
2022-11-29T12:25:21.846Z,81.07
2022-11-29T12:27:52.299Z,75.07
2022-11-29T12:30:19.918Z,86.90
2022-11-29T12:33:17.967Z,71.43
2022-11-29T12:36:00.868Z,77.28
2022-11-29T12:39:07.731Z,74.35
2022-11-29T12:41:59.567Z,69.85
2022-11-29T12:44:43.053Z,70.82
2022-11-29T12:47:37.697Z,70.35
2022-11-29T12:50:14.586Z,74.97
2022-11-29T12:52:59.661Z,77.43
2022-11-29T12:55:53.609Z,76.43
2022-11-29T12:58:55.648Z,77.55
2022-11-29T13:01:58.251Z,67.38
2022-11-29T13:04:59.425Z,73.75
2022-11-29T13:07:46.871Z,66.57
2022-11-29T13:10:48.005Z,71.70
2022-11-29T13:13:20.538Z,70.57
2022-11-29T13:15:58.459Z,72.05
2022-11-29T13:18:43.657Z,73.78
2022-11-29T13:21:17.285Z,69.80
2022-11-29T13:24:10.029Z,64.35
2022-11-29T13:26:39.981Z,61.22
2022-11-29T13:29:15.461Z,52.90
2022-11-29T13:31:43.039Z,61.58
2022-11-29T13:34:42.603Z,58.67
2022-11-29T13:37:24.398Z,59.35
2022-11-29T13:40:03.291Z,58.60
2022-11-29T13:42:33.149Z,63.63
2022-11-29T13:45:21.567Z,62.83
2022-11-29T13:47:58.349Z,66.35
2022-11-29T13:50:37.422Z,58.28
2022-11-29T13:53:13.549Z,60.45
2022-11-29T13:55:50.800Z,66.43
2022-11-29T13:58:32.570Z,61.13
2022-11-29T14:01:00.978Z,67.38
2022-11-29T14:03:34.925Z,70.82
2022-11-29T14:06:01.677Z,65.32
2022-11-29T14:09:10.377Z,81.25
2022-11-29T14:11:44.904Z,71.32
2022-11-29T14:14:17.508Z,84.75
2022-11-29T14:16:44.237Z,75.38
2022-11-29T14:19:33.953Z,78.68
2022-11-29T14:22:06.802Z,75.43
2022-11-29T14:24:36.378Z,74.32
2022-11-29T14:27:06.289Z,70.03
2022-11-29T14:29:50.920Z,81.15
2022-11-29T14:32:26.492Z,83.70
2022-11-29T14:35:11.615Z,70.88
2022-11-29T14:37:49.297Z,81.60
2022-11-29T14:40:41.660Z,82.57
2022-11-29T14:43:36.792Z,85.57
2022-11-29T14:46:15.972Z,69.90
2022-11-29T14:49:03.241Z,80.18
2022-11-29T14:51:32.564Z,76.97
2022-11-29T14:54:14.921Z,77.15
2022-11-29T14:56:46.215Z,79.50
2022-11-29T14:59:41.060Z,69.50
2022-11-29T15:02:20.101Z,51.40
2022-11-29T15:04:50.870Z,77.63
2022-11-29T15:07:23.677Z,74.50
2022-11-29T15:09:51.063Z,82.80
2022-11-29T15:12:23.242Z,70.70
2022-11-29T15:14:58.917Z,67.55
2022-11-29T15:17:49.952Z,74.25
2022-11-29T15:20:40.305Z,65.70
2022-11-29T15:23:14.887Z,70.80
2022-11-29T15:25:52.918Z,68.55
2022-11-29T15:28:27.987Z,74.30
2022-11-29T15:33:43.549Z,74.18
2022-11-29T15:36:18.695Z,73.03
2022-11-29T15:41:27.016Z,69.00
2022-11-29T15:43:57.881Z,65.45
2022-11-29T15:46:29.468Z,78.32
2022-11-29T15:49:14.833Z,67.32
2022-11-29T15:51:42.146Z,80.07
2022-11-29T15:54:28.907Z,75.63
2022-11-29T15:57:04.555Z,62.85
2022-11-29T15:59:36.861Z,70.40
2022-11-29T16:02:31.285Z,77.53
2022-11-29T16:05:16.623Z,70.75
2022-11-29T16:07:46.083Z,76.50
2022-11-29T16:10:17.002Z,66.97
2022-11-29T16:12:54.849Z,70.95
2022-11-29T16:15:31.916Z,77.75
2022-11-29T16:18:12.169Z,71.15
2022-11-29T16:20:39.691Z,72.85
2022-11-29T16:23:13.837Z,75.95
2022-11-29T16:26:04.479Z,56.45
2022-11-29T16:28:40.637Z,75.43
2022-11-29T16:31:12.364Z,75.55
2022-11-29T16:33:42.169Z,57.15
2022-11-29T16:36:24.164Z,99.90
2022-11-29T16:39:04.190Z,76.38
2022-11-29T16:41:36.996Z,79.05
2022-11-29T16:44:05.895Z,77.47
2022-11-29T16:46:40.215Z,66.35
2022-11-29T16:49:34.154Z,80.35
2022-11-29T16:52:01.938Z,76.75
2022-11-29T16:54:36.813Z,68.90
2022-11-29T16:57:09.310Z,83.20
2022-11-29T16:59:39.140Z,72.25
2022-11-29T17:02:10.792Z,74.60
2022-11-29T17:04:37.662Z,86.63
2022-11-29T17:07:07.583Z,80.53
2022-11-29T17:09:35.106Z,86.85
2022-11-29T17:12:02.928Z,86.00
2022-11-29T17:14:29.961Z,85.22
2022-11-29T17:16:57.506Z,72.85
2022-11-29T17:19:34.875Z,86.03
2022-11-29T17:22:05.231Z,80.32
2022-11-29T17:24:32.288Z,72.35
2022-11-29T17:27:02.188Z,83.32
2022-11-29T17:29:29.055Z,77.10
2022-11-29T17:31:56.338Z,79.65
2022-11-29T17:34:23.189Z,70.25
2022-11-29T17:36:50.867Z,70.63
2022-11-29T17:39:21.712Z,78.57
2022-11-29T17:41:55.608Z,71.32
2022-11-29T17:44:22.948Z,88.70
2022-11-29T17:46:49.816Z,75.30
2022-11-29T17:49:18.675Z,66.50
2022-11-29T17:51:53.892Z,79.10
2022-11-29T17:54:25.311Z,79.03
2022-11-29T17:56:52.436Z,71.90
2022-11-29T17:59:19.410Z,61.42
2022-11-29T18:01:48.979Z,71.70
2022-11-29T18:04:21.399Z,68.80
2022-11-29T18:06:55.737Z,76.10
2022-11-29T18:09:22.801Z,53.92
2022-11-29T18:11:50.492Z,72.05
2022-11-29T18:14:23.700Z,73.95
2022-11-29T18:16:53.855Z,78.20
2022-11-29T18:19:31.663Z,80.65
2022-11-29T18:22:07.515Z,81.20
2022-11-29T18:24:43.937Z,64.65
2022-11-29T18:27:10.905Z,66.35
2022-11-29T18:29:39.371Z,68.65
2022-11-29T18:32:06.444Z,80.95
2022-11-29T18:34:36.274Z,69.85
2022-11-29T18:37:03.354Z,65.25
2022-11-29T18:39:30.560Z,67.45
2022-11-29T18:41:57.415Z,71.57
2022-11-29T18:44:29.583Z,59.75
2022-11-29T18:47:04.059Z,62.67
2022-11-29T18:49:33.518Z,88.28
2022-11-29T18:52:00.406Z,70.38
2022-11-29T18:54:29.095Z,65.88
2022-11-29T18:56:55.958Z,69.68
2022-11-29T18:59:37.555Z,59.42
2022-11-29T19:02:10.247Z,64.00
2022-11-29T19:04:40.158Z,100.70
2022-11-29T19:07:06.990Z,76.70
2022-11-29T19:09:33.799Z,72.60
2022-11-29T19:12:03.904Z,69.35
2022-11-29T19:14:36.544Z,154.10
2022-11-29T19:17:03.489Z,150.20
2022-11-29T19:19:32.103Z,66.55
2022-11-29T19:21:59.767Z,54.28
2022-11-29T19:24:35.747Z,58.00
2022-11-29T19:27:04.633Z,61.90
2022-11-29T19:29:36.668Z,61.17
2022-11-29T19:32:08.520Z,67.47
2022-11-29T19:34:35.271Z,76.30
2022-11-29T19:37:02.046Z,87.85
2022-11-29T19:39:30.512Z,65.65
2022-11-29T19:41:57.349Z,70.63
2022-11-29T19:44:29.820Z,66.47
2022-11-29T19:46:56.935Z,59.45
2022-11-29T19:49:27.064Z,61.92
2022-11-29T19:51:54.183Z,95.40
2022-11-29T19:54:21.094Z,69.07
2022-11-29T19:56:48.033Z,63.00
2022-11-29T19:59:18.578Z,68.30
2022-11-29T20:01:52.694Z,62.30
2022-11-29T20:04:19.841Z,113.70
2022-11-29T20:06:46.747Z,76.53
2022-11-29T20:09:14.180Z,96.60
2022-11-29T20:11:44.927Z,84.82
2022-11-29T20:14:18.751Z,68.57
2022-11-29T20:16:46.020Z,67.85
2022-11-29T20:19:15.854Z,66.70
2022-11-29T20:21:45.877Z,74.30
2022-11-29T20:24:14.518Z,94.20
2022-11-29T20:26:49.815Z,82.60
2022-11-29T20:29:17.600Z,92.07
2022-11-29T20:31:50.019Z,81.75
2022-11-29T20:34:18.302Z,101.03
2022-11-29T20:37:20.232Z,83.05
2022-11-29T20:40:02.413Z,76.05
2022-11-29T20:42:34.969Z,72.53
2022-11-29T20:45:09.774Z,70.95
2022-11-29T20:47:53.236Z,76.32
2022-11-29T20:50:28.699Z,75.70
2022-11-29T20:53:31.655Z,88.28
2022-11-29T20:55:58.673Z,82.18
2022-11-29T20:58:26.601Z,93.47
2022-11-29T21:00:59.926Z,76.35
2022-11-29T21:03:34.251Z,80.65
2022-11-29T21:06:03.675Z,82.13
2022-11-29T21:08:30.690Z,78.95
2022-11-29T21:11:10.277Z,70.60
2022-11-29T21:13:37.950Z,89.03
2022-11-29T21:16:09.814Z,116.18
2022-11-29T21:18:37.041Z,81.65
2022-11-29T21:21:07.114Z,101.45
2022-11-29T21:24:07.861Z,89.32
2022-11-29T21:26:41.691Z,97.90
2022-11-29T21:29:14.962Z,92.05
2022-11-29T21:31:42.279Z,82.82
2022-11-29T21:34:09.274Z,79.63
2022-11-29T21:36:37.299Z,96.43
2022-11-29T21:39:06.464Z,75.68
2022-11-29T21:41:33.484Z,73.32
2022-11-29T21:44:08.281Z,86.03
2022-11-29T21:46:35.866Z,154.02
2022-11-29T21:49:03.296Z,76.93
2022-11-29T21:51:30.365Z,79.72
2022-11-29T21:53:57.248Z,93.00
2022-11-29T21:56:27.137Z,90.53
2022-11-29T21:58:54.256Z,78.40
2022-11-29T22:01:21.199Z,85.50
2022-11-29T22:03:47.971Z,97.63
2022-11-29T22:06:20.320Z,95.60
2022-11-29T22:08:48.382Z,82.30
2022-11-29T22:11:30.678Z,71.53
2022-11-29T22:14:18.568Z,73.88
2022-11-29T22:17:00.024Z,72.93
2022-11-29T22:19:32.364Z,73.43
2022-11-29T22:22:01.730Z,71.53
2022-11-29T22:24:31.372Z,70.85
2022-11-29T22:26:58.223Z,78.82
2022-11-29T22:29:25.460Z,66.55
2022-11-29T22:31:54.831Z,65.18
2022-11-29T22:34:22.884Z,117.38
2022-11-29T22:36:49.673Z,81.97
2022-11-29T22:39:16.459Z,72.20
2022-11-29T22:41:43.518Z,61.58
2022-11-29T22:44:10.556Z,63.78
2022-11-29T22:46:40.170Z,62.72
2022-11-29T22:49:07.422Z,64.55
2022-11-29T22:51:36.463Z,67.95
2022-11-29T22:54:06.291Z,59.22
2022-11-29T22:56:36.539Z,66.05
2022-11-29T22:59:04.027Z,71.70
2022-11-29T23:01:32.947Z,72.03
2022-11-29T23:04:03.937Z,72.03
2022-11-29T23:06:33.093Z,67.60
2022-11-29T23:09:10.506Z,72.78
2022-11-29T23:11:37.933Z,76.53
2022-11-29T23:14:04.890Z,72.22
2022-11-29T23:16:32.794Z,79.53
2022-11-29T23:19:00.562Z,62.75
2022-11-29T23:21:33.279Z,69.90
2022-11-29T23:24:01.316Z,68.13
2022-11-29T23:26:38.945Z,73.95
2022-11-29T23:29:07.721Z,65.38
2022-11-29T23:31:34.554Z,72.80
2022-11-29T23:34:02.419Z,73.35
2022-11-29T23:36:29.632Z,79.57
2022-11-29T23:38:56.529Z,71.18
2022-11-29T23:41:23.378Z,68.38
2022-11-29T23:43:50.192Z,66.00
2022-11-29T23:46:19.938Z,60.97
2022-11-29T23:48:47.077Z,55.05
2022-11-29T23:51:14.781Z,58.75
2022-11-29T23:53:42.097Z,52.85
2022-11-29T23:56:15.899Z,48.35
2022-11-29T23:58:44.360Z,51.70
